Terminal Aerodrome Forecast
Issued by NWS

Current Version | Previous Version | Text Only | Print | Product List | Glossary On
Versions: 1 2 3 4 5 6 7 8 9 10 11 12
000
FTUS41 KLWX 270000 AAA
TAFMTN
TAF AMD
KMTN 270005Z 2700/2724 16004KT P6SM FEW250
     FM270900 00000KT P6SM SKC
     FM271500 VRB03KT P6SM FEW050
      AMD NOT SKED 2702/2712=

USA.gov is the U.S. government's official web portal to all federal, state and local government web resources and services.